sensor_id;sensor_type;location;lat;lon;timestamp;temperature;humidity
55313;DHT22;46892;45.668;11.756;2022-09-03T00:07:50;18.90;77.40
55313;DHT22;46892;45.668;11.756;2022-09-03T00:10:42;18.80;76.50
55313;DHT22;46892;45.668;11.756;2022-09-03T00:13:15;18.90;77.30
55313;DHT22;46892;45.668;11.756;2022-09-03T00:15:42;18.90;77.30
55313;DHT22;46892;45.668;11.756;2022-09-03T00:18:20;19.10;76.80
55313;DHT22;46892;45.668;11.756;2022-09-03T00:20:51;19.00;76.70
55313;DHT22;46892;45.668;11.756;2022-09-03T00:23:22;19.00;77.00
55313;DHT22;46892;45.668;11.756;2022-09-03T00:25:51;19.20;76.60
55313;DHT22;46892;45.668;11.756;2022-09-03T00:28:25;19.20;76.10
55313;DHT22;46892;45.668;11.756;2022-09-03T00:31:02;19.20;76.50
55313;DHT22;46892;45.668;11.756;2022-09-03T00:33:31;19.20;76.00
55313;DHT22;46892;45.668;11.756;2022-09-03T00:38:28;19.30;76.10
55313;DHT22;46892;45.668;11.756;2022-09-03T00:47:08;19.10;76.70
55313;DHT22;46892;45.668;11.756;2022-09-03T00:49:56;19.10;76.30
55313;DHT22;46892;45.668;11.756;2022-09-03T00:52:33;19.20;75.50
55313;DHT22;46892;45.668;11.756;2022-09-03T00:55:21;19.20;76.90
55313;DHT22;46892;45.668;11.756;2022-09-03T01:00:19;19.30;77.70
55313;DHT22;46892;45.668;11.756;2022-09-03T01:17:09;19.60;76.60
55313;DHT22;46892;45.668;11.756;2022-09-03T01:25:09;19.40;75.60
55313;DHT22;46892;45.668;11.756;2022-09-03T01:30:27;19.20;74.40
55313;DHT22;46892;45.668;11.756;2022-09-03T01:33:38;19.20;73.80
55313;DHT22;46892;45.668;11.756;2022-09-03T01:36:03;19.20;73.60
55313;DHT22;46892;45.668;11.756;2022-09-03T01:41:34;19.20;74.30
55313;DHT22;46892;45.668;11.756;2022-09-03T01:47:41;19.50;75.70
55313;DHT22;46892;45.668;11.756;2022-09-03T01:50:28;19.50;75.10
55313;DHT22;46892;45.668;11.756;2022-09-03T01:53:22;19.50;74.90
55313;DHT22;46892;45.668;11.756;2022-09-03T01:56:39;19.50;74.60
55313;DHT22;46892;45.668;11.756;2022-09-03T01:59:02;19.50;74.00
55313;DHT22;46892;45.668;11.756;2022-09-03T02:01:56;19.60;75.10
55313;DHT22;46892;45.668;11.756;2022-09-03T02:04:24;19.50;75.20
55313;DHT22;46892;45.668;11.756;2022-09-03T02:06:51;19.50;74.30
55313;DHT22;46892;45.668;11.756;2022-09-03T02:09:18;19.40;74.40
55313;DHT22;46892;45.668;11.756;2022-09-03T02:14:46;19.20;75.40
55313;DHT22;46892;45.668;11.756;2022-09-03T02:17:12;19.00;75.60
55313;DHT22;46892;45.668;11.756;2022-09-03T02:19:38;19.00;75.30
55313;DHT22;46892;45.668;11.756;2022-09-03T02:22:04;18.90;73.80
55313;DHT22;46892;45.668;11.756;2022-09-03T02:24:30;18.80;74.20
55313;DHT22;46892;45.668;11.756;2022-09-03T02:26:57;18.80;76.40
55313;DHT22;46892;45.668;11.756;2022-09-03T02:29:23;18.90;75.80
55313;DHT22;46892;45.668;11.756;2022-09-03T02:31:48;18.80;74.80
55313;DHT22;46892;45.668;11.756;2022-09-03T02:34:14;18.80;73.50
55313;DHT22;46892;45.668;11.756;2022-09-03T02:36:42;18.80;73.50
55313;DHT22;46892;45.668;11.756;2022-09-03T02:39:10;18.70;73.20
55313;DHT22;46892;45.668;11.756;2022-09-03T02:41:38;18.60;73.30
55313;DHT22;46892;45.668;11.756;2022-09-03T02:44:29;18.60;73.60
55313;DHT22;46892;45.668;11.756;2022-09-03T02:47:01;18.60;73.60
55313;DHT22;46892;45.668;11.756;2022-09-03T02:49:28;18.60;72.90
55313;DHT22;46892;45.668;11.756;2022-09-03T02:52:02;18.60;72.90
55313;DHT22;46892;45.668;11.756;2022-09-03T02:54:34;18.50;72.50
55313;DHT22;46892;45.668;11.756;2022-09-03T02:57:05;18.50;72.30
55313;DHT22;46892;45.668;11.756;2022-09-03T02:59:31;18.50;72.10
55313;DHT22;46892;45.668;11.756;2022-09-03T03:01:56;18.60;72.10
55313;DHT22;46892;45.668;11.756;2022-09-03T03:04:22;18.60;72.20
55313;DHT22;46892;45.668;11.756;2022-09-03T03:06:48;18.70;71.70
55313;DHT22;46892;45.668;11.756;2022-09-03T03:09:16;18.70;71.50
55313;DHT22;46892;45.668;11.756;2022-09-03T03:11:41;18.80;71.40
55313;DHT22;46892;45.668;11.756;2022-09-03T03:14:08;18.80;70.90
55313;DHT22;46892;45.668;11.756;2022-09-03T03:16:34;18.80;71.20
55313;DHT22;46892;45.668;11.756;2022-09-03T03:18:59;18.80;70.40
55313;DHT22;46892;45.668;11.756;2022-09-03T03:21:25;18.80;70.70
55313;DHT22;46892;45.668;11.756;2022-09-03T03:23:51;18.80;70.50
55313;DHT22;46892;45.668;11.756;2022-09-03T03:26:18;18.70;70.80
55313;DHT22;46892;45.668;11.756;2022-09-03T03:28:46;18.70;71.10
55313;DHT22;46892;45.668;11.756;2022-09-03T03:31:15;18.70;71.20
55313;DHT22;46892;45.668;11.756;2022-09-03T03:33:41;18.80;73.20
55313;DHT22;46892;45.668;11.756;2022-09-03T03:36:12;18.90;73.30
55313;DHT22;46892;45.668;11.756;2022-09-03T03:38:39;18.90;73.70
55313;DHT22;46892;45.668;11.756;2022-09-03T03:41:17;18.90;74.00
55313;DHT22;46892;45.668;11.756;2022-09-03T03:43:44;18.80;73.60
55313;DHT22;46892;45.668;11.756;2022-09-03T03:46:10;18.80;73.40
55313;DHT22;46892;45.668;11.756;2022-09-03T03:48:36;18.60;73.20
55313;DHT22;46892;45.668;11.756;2022-09-03T03:51:05;18.30;73.00
55313;DHT22;46892;45.668;11.756;2022-09-03T03:53:33;18.20;73.50
55313;DHT22;46892;45.668;11.756;2022-09-03T03:56:01;18.30;74.60
55313;DHT22;46892;45.668;11.756;2022-09-03T03:58:30;18.30;75.10
55313;DHT22;46892;45.668;11.756;2022-09-03T04:01:06;18.40;74.70
55313;DHT22;46892;45.668;11.756;2022-09-03T04:03:33;18.50;75.50
55313;DHT22;46892;45.668;11.756;2022-09-03T04:06:00;18.50;73.80
55313;DHT22;46892;45.668;11.756;2022-09-03T04:08:27;18.40;73.50
55313;DHT22;46892;45.668;11.756;2022-09-03T04:10:53;18.30;73.90
55313;DHT22;46892;45.668;11.756;2022-09-03T04:13:19;18.20;74.30
55313;DHT22;46892;45.668;11.756;2022-09-03T04:15:45;18.00;74.90
55313;DHT22;46892;45.668;11.756;2022-09-03T04:18:11;18.00;75.10
55313;DHT22;46892;45.668;11.756;2022-09-03T04:20:37;18.00;75.30
55313;DHT22;46892;45.668;11.756;2022-09-03T04:23:04;18.00;75.60
55313;DHT22;46892;45.668;11.756;2022-09-03T04:25:30;18.00;75.40
55313;DHT22;46892;45.668;11.756;2022-09-03T04:27:56;18.00;75.50
55313;DHT22;46892;45.668;11.756;2022-09-03T04:30:22;18.00;75.80
55313;DHT22;46892;45.668;11.756;2022-09-03T04:32:51;18.10;75.80
55313;DHT22;46892;45.668;11.756;2022-09-03T04:35:25;18.10;76.00
55313;DHT22;46892;45.668;11.756;2022-09-03T04:37:53;18.10;76.20
55313;DHT22;46892;45.668;11.756;2022-09-03T04:40:19;18.20;76.70
55313;DHT22;46892;45.668;11.756;2022-09-03T04:42:45;18.30;77.30
55313;DHT22;46892;45.668;11.756;2022-09-03T04:45:11;18.30;76.40
55313;DHT22;46892;45.668;11.756;2022-09-03T04:47:40;18.40;75.80
55313;DHT22;46892;45.668;11.756;2022-09-03T04:50:06;18.40;76.40
55313;DHT22;46892;45.668;11.756;2022-09-03T04:52:32;18.50;77.00
55313;DHT22;46892;45.668;11.756;2022-09-03T04:54:58;18.70;77.00
55313;DHT22;46892;45.668;11.756;2022-09-03T04:57:23;18.80;76.80
55313;DHT22;46892;45.668;11.756;2022-09-03T04:59:49;19.00;75.70
55313;DHT22;46892;45.668;11.756;2022-09-03T05:02:15;19.10;75.90
55313;DHT22;46892;45.668;11.756;2022-09-03T05:04:41;19.30;75.20
55313;DHT22;46892;45.668;11.756;2022-09-03T05:07:07;19.40;75.00
55313;DHT22;46892;45.668;11.756;2022-09-03T05:09:33;19.40;75.40
55313;DHT22;46892;45.668;11.756;2022-09-03T05:11:59;19.50;75.20
55313;DHT22;46892;45.668;11.756;2022-09-03T05:14:24;19.40;75.10
55313;DHT22;46892;45.668;11.756;2022-09-03T05:16:50;19.30;75.30
55313;DHT22;46892;45.668;11.756;2022-09-03T05:19:16;19.20;76.10
55313;DHT22;46892;45.668;11.756;2022-09-03T05:21:42;19.10;75.80
55313;DHT22;46892;45.668;11.756;2022-09-03T05:24:08;19.10;75.40
55313;DHT22;46892;45.668;11.756;2022-09-03T05:26:37;19.10;75.40
55313;DHT22;46892;45.668;11.756;2022-09-03T05:29:05;19.20;75.50
55313;DHT22;46892;45.668;11.756;2022-09-03T05:31:35;19.20;75.40
55313;DHT22;46892;45.668;11.756;2022-09-03T05:34:03;19.40;74.30
55313;DHT22;46892;45.668;11.756;2022-09-03T05:36:32;19.50;74.90
55313;DHT22;46892;45.668;11.756;2022-09-03T05:38:59;19.70;74.50
55313;DHT22;46892;45.668;11.756;2022-09-03T05:41:26;19.90;73.50
55313;DHT22;46892;45.668;11.756;2022-09-03T05:43:53;20.20;72.70
55313;DHT22;46892;45.668;11.756;2022-09-03T05:46:30;20.40;70.70
55313;DHT22;46892;45.668;11.756;2022-09-03T05:48:57;20.60;70.30
55313;DHT22;46892;45.668;11.756;2022-09-03T05:51:23;20.80;70.00
55313;DHT22;46892;45.668;11.756;2022-09-03T05:53:49;21.00;70.30
55313;DHT22;46892;45.668;11.756;2022-09-03T05:56:17;21.20;69.80
55313;DHT22;46892;45.668;11.756;2022-09-03T05:58:51;21.30;68.30
55313;DHT22;46892;45.668;11.756;2022-09-03T06:01:22;21.40;67.80
55313;DHT22;46892;45.668;11.756;2022-09-03T06:06:23;21.70;66.30
55313;DHT22;46892;45.668;11.756;2022-09-03T06:08:55;21.70;68.00
55313;DHT22;46892;45.668;11.756;2022-09-03T06:11:22;21.70;67.70
55313;DHT22;46892;45.668;11.756;2022-09-03T06:13:53;21.70;66.50
55313;DHT22;46892;45.668;11.756;2022-09-03T06:16:18;21.70;64.50
55313;DHT22;46892;45.668;11.756;2022-09-03T06:18:46;21.90;65.10
55313;DHT22;46892;45.668;11.756;2022-09-03T06:21:11;21.90;63.90
55313;DHT22;46892;45.668;11.756;2022-09-03T06:23:39;22.00;63.30
55313;DHT22;46892;45.668;11.756;2022-09-03T06:26:07;22.00;62.40
55313;DHT22;46892;45.668;11.756;2022-09-03T06:28:35;22.00;63.00
55313;DHT22;46892;45.668;11.756;2022-09-03T06:31:02;22.00;62.20
55313;DHT22;46892;45.668;11.756;2022-09-03T06:33:32;22.00;61.20
55313;DHT22;46892;45.668;11.756;2022-09-03T06:35:59;22.00;60.40
55313;DHT22;46892;45.668;11.756;2022-09-03T06:38:26;22.00;61.80
55313;DHT22;46892;45.668;11.756;2022-09-03T06:40:58;22.10;61.10
55313;DHT22;46892;45.668;11.756;2022-09-03T06:43:27;22.20;61.60
55313;DHT22;46892;45.668;11.756;2022-09-03T06:45:58;22.30;62.40
55313;DHT22;46892;45.668;11.756;2022-09-03T06:48:25;22.30;58.00
55313;DHT22;46892;45.668;11.756;2022-09-03T06:51:02;22.40;57.40
55313;DHT22;46892;45.668;11.756;2022-09-03T06:53:30;22.60;57.40
55313;DHT22;46892;45.668;11.756;2022-09-03T06:55:57;22.70;55.70
55313;DHT22;46892;45.668;11.756;2022-09-03T06:58:27;22.80;56.60
55313;DHT22;46892;45.668;11.756;2022-09-03T07:00:53;22.90;56.40
55313;DHT22;46892;45.668;11.756;2022-09-03T07:03:19;22.90;55.70
55313;DHT22;46892;45.668;11.756;2022-09-03T07:05:46;22.70;55.00
55313;DHT22;46892;45.668;11.756;2022-09-03T07:08:11;22.50;56.10
55313;DHT22;46892;45.668;11.756;2022-09-03T07:10:37;22.30;55.80
55313;DHT22;46892;45.668;11.756;2022-09-03T07:13:03;22.20;58.30
55313;DHT22;46892;45.668;11.756;2022-09-03T07:15:32;22.00;58.60
55313;DHT22;46892;45.668;11.756;2022-09-03T07:17:58;22.00;59.80
55313;DHT22;46892;45.668;11.756;2022-09-03T07:20:24;22.30;58.80
55313;DHT22;46892;45.668;11.756;2022-09-03T07:22:49;22.60;58.10
55313;DHT22;46892;45.668;11.756;2022-09-03T07:25:15;22.80;56.10
55313;DHT22;46892;45.668;11.756;2022-09-03T07:27:41;22.90;56.80
55313;DHT22;46892;45.668;11.756;2022-09-03T07:30:07;23.00;57.50
55313;DHT22;46892;45.668;11.756;2022-09-03T07:32:34;23.10;55.70
55313;DHT22;46892;45.668;11.756;2022-09-03T07:35:01;23.30;58.30
55313;DHT22;46892;45.668;11.756;2022-09-03T07:37:27;23.50;55.40
55313;DHT22;46892;45.668;11.756;2022-09-03T07:39:53;23.60;55.20
55313;DHT22;46892;45.668;11.756;2022-09-03T07:42:18;23.70;56.60
55313;DHT22;46892;45.668;11.756;2022-09-03T07:44:45;23.80;56.60
55313;DHT22;46892;45.668;11.756;2022-09-03T07:47:11;23.70;53.70
55313;DHT22;46892;45.668;11.756;2022-09-03T07:49:37;23.50;55.70
55313;DHT22;46892;45.668;11.756;2022-09-03T07:52:03;23.40;57.30
55313;DHT22;46892;45.668;11.756;2022-09-03T07:54:28;23.20;56.40
55313;DHT22;46892;45.668;11.756;2022-09-03T07:56:55;23.10;57.70
55313;DHT22;46892;45.668;11.756;2022-09-03T07:59:21;23.10;55.70
55313;DHT22;46892;45.668;11.756;2022-09-03T08:01:48;23.20;58.80
55313;DHT22;46892;45.668;11.756;2022-09-03T08:04:15;23.40;58.20
55313;DHT22;46892;45.668;11.756;2022-09-03T08:06:41;23.70;58.00
55313;DHT22;46892;45.668;11.756;2022-09-03T08:09:08;23.80;55.20
55313;DHT22;46892;45.668;11.756;2022-09-03T08:11:37;23.90;55.70
55313;DHT22;46892;45.668;11.756;2022-09-03T08:14:07;24.20;56.60
55313;DHT22;46892;45.668;11.756;2022-09-03T08:16:35;24.40;57.80
55313;DHT22;46892;45.668;11.756;2022-09-03T08:19:01;24.60;54.90
55313;DHT22;46892;45.668;11.756;2022-09-03T08:21:27;24.70;55.10
55313;DHT22;46892;45.668;11.756;2022-09-03T08:23:55;24.70;54.90
55313;DHT22;46892;45.668;11.756;2022-09-03T08:26:31;24.70;54.00
55313;DHT22;46892;45.668;11.756;2022-09-03T08:28:57;24.60;55.00
55313;DHT22;46892;45.668;11.756;2022-09-03T08:31:23;24.60;55.00
55313;DHT22;46892;45.668;11.756;2022-09-03T08:33:52;24.60;55.10
55313;DHT22;46892;45.668;11.756;2022-09-03T08:36:20;24.70;56.40
55313;DHT22;46892;45.668;11.756;2022-09-03T08:38:48;24.50;55.30
55313;DHT22;46892;45.668;11.756;2022-09-03T08:52:49;24.80;56.40
55313;DHT22;46892;45.668;11.756;2022-09-03T08:55:26;24.90;57.70
55313;DHT22;46892;45.668;11.756;2022-09-03T08:58:18;25.10;59.30
55313;DHT22;46892;45.668;11.756;2022-09-03T09:00:54;25.20;56.80
55313;DHT22;46892;45.668;11.756;2022-09-03T09:03:49;25.20;55.20
55313;DHT22;46892;45.668;11.756;2022-09-03T09:06:38;25.20;54.40
55313;DHT22;46892;45.668;11.756;2022-09-03T09:12:20;25.00;54.40
55313;DHT22;46892;45.668;11.756;2022-09-03T09:23:12;24.70;55.70
55313;DHT22;46892;45.668;11.756;2022-09-03T09:25:47;24.80;55.50
55313;DHT22;46892;45.668;11.756;2022-09-03T09:28:21;24.90;58.00
55313;DHT22;46892;45.668;11.756;2022-09-03T09:30:50;24.80;59.30
55313;DHT22;46892;45.668;11.756;2022-09-03T09:33:19;24.90;57.70
55313;DHT22;46892;45.668;11.756;2022-09-03T09:35:45;25.00;55.80
55313;DHT22;46892;45.668;11.756;2022-09-03T09:38:12;24.90;55.40
55313;DHT22;46892;45.668;11.756;2022-09-03T09:40:43;24.90;57.80
55313;DHT22;46892;45.668;11.756;2022-09-03T09:43:17;25.00;57.60
55313;DHT22;46892;45.668;11.756;2022-09-03T09:45:49;25.00;56.10
55313;DHT22;46892;45.668;11.756;2022-09-03T09:48:30;25.00;53.40
55313;DHT22;46892;45.668;11.756;2022-09-03T09:51:09;25.00;55.70
55313;DHT22;46892;45.668;11.756;2022-09-03T09:53:35;24.90;57.70
55313;DHT22;46892;45.668;11.756;2022-09-03T09:56:01;25.00;58.00
55313;DHT22;46892;45.668;11.756;2022-09-03T09:58:30;24.90;56.80
55313;DHT22;46892;45.668;11.756;2022-09-03T10:01:10;25.00;57.10
55313;DHT22;46892;45.668;11.756;2022-09-03T10:03:53;24.80;56.80
55313;DHT22;46892;45.668;11.756;2022-09-03T10:06:31;25.00;58.00
55313;DHT22;46892;45.668;11.756;2022-09-03T10:09:18;25.10;56.30
55313;DHT22;46892;45.668;11.756;2022-09-03T10:14:25;25.50;55.60
55313;DHT22;46892;45.668;11.756;2022-09-03T10:22:42;25.40;57.30
55313;DHT22;46892;45.668;11.756;2022-09-03T10:25:14;25.30;55.80
55313;DHT22;46892;45.668;11.756;2022-09-03T10:27:40;25.20;52.30
55313;DHT22;46892;45.668;11.756;2022-09-03T10:30:11;25.20;54.30
55313;DHT22;46892;45.668;11.756;2022-09-03T10:35:12;25.20;54.10
55313;DHT22;46892;45.668;11.756;2022-09-03T10:37:49;25.20;53.80
55313;DHT22;46892;45.668;11.756;2022-09-03T10:43:08;25.00;57.70
55313;DHT22;46892;45.668;11.756;2022-09-03T10:48:13;25.00;54.40
55313;DHT22;46892;45.668;11.756;2022-09-03T10:50:44;25.00;54.70
55313;DHT22;46892;45.668;11.756;2022-09-03T11:00:58;25.00;53.70
55313;DHT22;46892;45.668;11.756;2022-09-03T11:03:42;25.00;54.80
55313;DHT22;46892;45.668;11.756;2022-09-03T11:06:39;24.90;55.50
55313;DHT22;46892;45.668;11.756;2022-09-03T11:17:45;25.20;54.10
55313;DHT22;46892;45.668;11.756;2022-09-03T11:20:22;25.40;55.30
55313;DHT22;46892;45.668;11.756;2022-09-03T11:22:51;25.40;55.20
55313;DHT22;46892;45.668;11.756;2022-09-03T11:25:19;25.60;55.90
55313;DHT22;46892;45.668;11.756;2022-09-03T11:31:02;25.80;53.30
55313;DHT22;46892;45.668;11.756;2022-09-03T11:33:32;25.80;52.20
55313;DHT22;46892;45.668;11.756;2022-09-03T11:35:59;26.00;54.90
55313;DHT22;46892;45.668;11.756;2022-09-03T11:38:28;26.00;52.50
55313;DHT22;46892;45.668;11.756;2022-09-03T11:41:26;26.00;51.20
55313;DHT22;46892;45.668;11.756;2022-09-03T11:43:53;26.10;54.30
55313;DHT22;46892;45.668;11.756;2022-09-03T11:49:10;26.20;52.50
55313;DHT22;46892;45.668;11.756;2022-09-03T11:51:37;26.30;49.60
55313;DHT22;46892;45.668;11.756;2022-09-03T11:54:24;26.20;50.40
55313;DHT22;46892;45.668;11.756;2022-09-03T11:57:01;26.30;51.90
55313;DHT22;46892;45.668;11.756;2022-09-03T11:59:28;26.30;52.00
55313;DHT22;46892;45.668;11.756;2022-09-03T12:02:15;26.40;50.20
55313;DHT22;46892;45.668;11.756;2022-09-03T12:07:43;26.40;51.80
55313;DHT22;46892;45.668;11.756;2022-09-03T12:10:45;26.50;51.00
55313;DHT22;46892;45.668;11.756;2022-09-03T12:18:14;26.70;49.10
55313;DHT22;46892;45.668;11.756;2022-09-03T12:20:47;26.60;47.20
55313;DHT22;46892;45.668;11.756;2022-09-03T12:23:44;26.60;47.50
55313;DHT22;46892;45.668;11.756;2022-09-03T12:28:49;26.60;46.10
55313;DHT22;46892;45.668;11.756;2022-09-03T12:31:18;26.60;48.70
55313;DHT22;46892;45.668;11.756;2022-09-03T12:33:52;26.50;50.60
55313;DHT22;46892;45.668;11.756;2022-09-03T12:36:20;26.50;52.00
55313;DHT22;46892;45.668;11.756;2022-09-03T12:38:46;26.50;50.00
55313;DHT22;46892;45.668;11.756;2022-09-03T12:41:29;26.50;50.40
55313;DHT22;46892;45.668;11.756;2022-09-03T12:43:59;26.60;50.30
55313;DHT22;46892;45.668;11.756;2022-09-03T12:46:27;26.70;49.00
55313;DHT22;46892;45.668;11.756;2022-09-03T12:48:57;26.80;49.30
55313;DHT22;46892;45.668;11.756;2022-09-03T12:51:31;26.90;48.10
55313;DHT22;46892;45.668;11.756;2022-09-03T12:53:58;27.00;49.50
55313;DHT22;46892;45.668;11.756;2022-09-03T12:56:24;26.90;48.80
55313;DHT22;46892;45.668;11.756;2022-09-03T12:58:59;27.00;48.60
55313;DHT22;46892;45.668;11.756;2022-09-03T13:01:28;26.90;48.20
55313;DHT22;46892;45.668;11.756;2022-09-03T13:04:07;26.70;49.50
55313;DHT22;46892;45.668;11.756;2022-09-03T13:06:48;26.70;50.30
55313;DHT22;46892;45.668;11.756;2022-09-03T13:09:19;26.70;49.20
55313;DHT22;46892;45.668;11.756;2022-09-03T13:11:47;26.80;49.30
55313;DHT22;46892;45.668;11.756;2022-09-03T13:14:13;26.80;49.00
55313;DHT22;46892;45.668;11.756;2022-09-03T13:19:21;26.90;48.30
55313;DHT22;46892;45.668;11.756;2022-09-03T13:27:34;26.90;50.90
55313;DHT22;46892;45.668;11.756;2022-09-03T13:30:15;26.90;49.70
55313;DHT22;46892;45.668;11.756;2022-09-03T13:38:34;27.00;49.60
55313;DHT22;46892;45.668;11.756;2022-09-03T13:41:14;26.80;48.50
55313;DHT22;46892;45.668;11.756;2022-09-03T13:43:56;26.90;50.80
55313;DHT22;46892;45.668;11.756;2022-09-03T13:46:32;26.70;51.10
55313;DHT22;46892;45.668;11.756;2022-09-03T13:49:35;26.70;50.60
55313;DHT22;46892;45.668;11.756;2022-09-03T14:14:44;26.60;48.60
55313;DHT22;46892;45.668;11.756;2022-09-03T14:20:07;26.60;50.50
55313;DHT22;46892;45.668;11.756;2022-09-03T14:25:25;26.50;52.10
55313;DHT22;46892;45.668;11.756;2022-09-03T14:27:54;26.70;51.50
55313;DHT22;46892;45.668;11.756;2022-09-03T14:33:18;26.70;51.80
55313;DHT22;46892;45.668;11.756;2022-09-03T14:38:22;26.70;53.40
55313;DHT22;46892;45.668;11.756;2022-09-03T14:41:06;26.70;53.50
55313;DHT22;46892;45.668;11.756;2022-09-03T14:49:47;26.70;52.70
55313;DHT22;46892;45.668;11.756;2022-09-03T15:01:01;26.50;54.70
55313;DHT22;46892;45.668;11.756;2022-09-03T15:03:45;26.40;56.10
55313;DHT22;46892;45.668;11.756;2022-09-03T15:06:25;26.60;56.80
55313;DHT22;46892;45.668;11.756;2022-09-03T15:09:04;26.60;56.50
55313;DHT22;46892;45.668;11.756;2022-09-03T15:11:47;26.70;57.70
55313;DHT22;46892;45.668;11.756;2022-09-03T15:14:29;26.80;57.20
55313;DHT22;46892;45.668;11.756;2022-09-03T15:31:02;26.60;59.70
55313;DHT22;46892;45.668;11.756;2022-09-03T15:36:38;26.40;59.60
55313;DHT22;46892;45.668;11.756;2022-09-03T15:39:09;26.30;59.70
55313;DHT22;46892;45.668;11.756;2022-09-03T15:41:56;26.20;60.50
55313;DHT22;46892;45.668;11.756;2022-09-03T15:44:24;26.10;61.30
55313;DHT22;46892;45.668;11.756;2022-09-03T15:47:02;26.10;60.20
55313;DHT22;46892;45.668;11.756;2022-09-03T15:52:28;25.90;61.10
55313;DHT22;46892;45.668;11.756;2022-09-03T16:00:18;26.00;61.60
55313;DHT22;46892;45.668;11.756;2022-09-03T16:03:10;26.00;61.30
55313;DHT22;46892;45.668;11.756;2022-09-03T16:05:49;26.00;61.10
55313;DHT22;46892;45.668;11.756;2022-09-03T16:08:58;26.00;60.70
55313;DHT22;46892;45.668;11.756;2022-09-03T16:11:36;25.90;59.90
55313;DHT22;46892;45.668;11.756;2022-09-03T16:14:15;25.80;60.20
55313;DHT22;46892;45.668;11.756;2022-09-03T16:19:40;25.90;59.80
55313;DHT22;46892;45.668;11.756;2022-09-03T16:25:07;25.70;60.50
55313;DHT22;46892;45.668;11.756;2022-09-03T16:27:40;25.70;60.60
55313;DHT22;46892;45.668;11.756;2022-09-03T16:30:13;25.70;61.10
55313;DHT22;46892;45.668;11.756;2022-09-03T16:32:52;25.60;60.40
55313;DHT22;46892;45.668;11.756;2022-09-03T16:35:34;25.60;60.90
55313;DHT22;46892;45.668;11.756;2022-09-03T16:38:30;25.50;60.20
55313;DHT22;46892;45.668;11.756;2022-09-03T16:52:01;25.00;61.70
55313;DHT22;46892;45.668;11.756;2022-09-03T16:54:47;24.90;62.50
55313;DHT22;46892;45.668;11.756;2022-09-03T17:00:09;24.90;63.90
55313;DHT22;46892;45.668;11.756;2022-09-03T17:02:48;24.70;63.10
55313;DHT22;46892;45.668;11.756;2022-09-03T17:22:09;24.60;63.40
55313;DHT22;46892;45.668;11.756;2022-09-03T17:24:49;24.50;63.40
55313;DHT22;46892;45.668;11.756;2022-09-03T17:36:11;24.20;64.70
55313;DHT22;46892;45.668;11.756;2022-09-03T17:46:43;23.80;65.80
55313;DHT22;46892;45.668;11.756;2022-09-03T17:49:17;23.70;65.90
55313;DHT22;46892;45.668;11.756;2022-09-03T17:51:49;23.60;66.10
55313;DHT22;46892;45.668;11.756;2022-09-03T17:54:41;23.60;65.90
55313;DHT22;46892;45.668;11.756;2022-09-03T17:57:28;23.50;66.00
55313;DHT22;46892;45.668;11.756;2022-09-03T18:00:10;23.50;66.10
55313;DHT22;46892;45.668;11.756;2022-09-03T18:05:45;23.30;66.40
55313;DHT22;46892;45.668;11.756;2022-09-03T18:08:23;23.30;66.00
55313;DHT22;46892;45.668;11.756;2022-09-03T18:11:08;23.20;66.00
55313;DHT22;46892;45.668;11.756;2022-09-03T18:13:59;23.20;66.90
55313;DHT22;46892;45.668;11.756;2022-09-03T18:16:51;23.20;65.90
55313;DHT22;46892;45.668;11.756;2022-09-03T18:21:58;23.00;66.40
55313;DHT22;46892;45.668;11.756;2022-09-03T18:24:56;23.00;66.70
55313;DHT22;46892;45.668;11.756;2022-09-03T18:27:56;22.90;66.90
55313;DHT22;46892;45.668;11.756;2022-09-03T18:30:41;22.80;67.40
55313;DHT22;46892;45.668;11.756;2022-09-03T18:33:26;22.80;67.60
55313;DHT22;46892;45.668;11.756;2022-09-03T18:36:11;22.80;67.60
55313;DHT22;46892;45.668;11.756;2022-09-03T18:39:25;22.90;67.60
55313;DHT22;46892;45.668;11.756;2022-09-03T18:45:31;22.80;67.70
55313;DHT22;46892;45.668;11.756;2022-09-03T18:48:24;22.80;67.50
55313;DHT22;46892;45.668;11.756;2022-09-03T18:51:25;22.80;66.90
55313;DHT22;46892;45.668;11.756;2022-09-03T19:00:44;22.80;67.40
55313;DHT22;46892;45.668;11.756;2022-09-03T19:09:52;22.80;69.40
55313;DHT22;46892;45.668;11.756;2022-09-03T19:15:51;22.80;68.70
55313;DHT22;46892;45.668;11.756;2022-09-03T19:22:07;22.50;68.40
55313;DHT22;46892;45.668;11.756;2022-09-03T19:24:56;22.50;68.80
55313;DHT22;46892;45.668;11.756;2022-09-03T19:27:52;22.60;69.40
55313;DHT22;46892;45.668;11.756;2022-09-03T19:30:57;22.50;69.60
55313;DHT22;46892;45.668;11.756;2022-09-03T19:36:55;22.20;70.10
55313;DHT22;46892;45.668;11.756;2022-09-03T19:39:52;22.20;69.80
55313;DHT22;46892;45.668;11.756;2022-09-03T19:43:12;22.20;70.10
55313;DHT22;46892;45.668;11.756;2022-09-03T19:54:36;22.00;70.40
55313;DHT22;46892;45.668;11.756;2022-09-03T19:57:21;22.00;70.50
55313;DHT22;46892;45.668;11.756;2022-09-03T20:00:06;22.00;71.10
55313;DHT22;46892;45.668;11.756;2022-09-03T20:02:50;22.10;71.20
55313;DHT22;46892;45.668;11.756;2022-09-03T20:05:36;22.30;70.30
55313;DHT22;46892;45.668;11.756;2022-09-03T20:08:22;22.40;69.70
55313;DHT22;46892;45.668;11.756;2022-09-03T20:11:15;22.40;69.90
55313;DHT22;46892;45.668;11.756;2022-09-03T20:13:41;22.40;69.60
55313;DHT22;46892;45.668;11.756;2022-09-03T20:16:37;22.20;69.90
55313;DHT22;46892;45.668;11.756;2022-09-03T20:19:19;22.20;70.20
55313;DHT22;46892;45.668;11.756;2022-09-03T20:33:08;22.20;71.40
55313;DHT22;46892;45.668;11.756;2022-09-03T20:36:00;22.10;71.30
55313;DHT22;46892;45.668;11.756;2022-09-03T20:55:56;21.90;71.90
55313;DHT22;46892;45.668;11.756;2022-09-03T20:58:32;21.90;72.30
55313;DHT22;46892;45.668;11.756;2022-09-03T21:01:05;21.90;72.30
55313;DHT22;46892;45.668;11.756;2022-09-03T21:03:46;21.80;72.60
55313;DHT22;46892;45.668;11.756;2022-09-03T21:06:29;21.70;72.80
55313;DHT22;46892;45.668;11.756;2022-09-03T21:09:19;21.70;73.10
55313;DHT22;46892;45.668;11.756;2022-09-03T21:11:53;21.60;73.20
55313;DHT22;46892;45.668;11.756;2022-09-03T21:14:38;21.70;73.20
55313;DHT22;46892;45.668;11.756;2022-09-03T21:20:07;21.60;73.40
55313;DHT22;46892;45.668;11.756;2022-09-03T21:23:17;21.50;73.60
55313;DHT22;46892;45.668;11.756;2022-09-03T21:26:09;21.30;73.80
55313;DHT22;46892;45.668;11.756;2022-09-03T21:28:41;21.30;73.90
55313;DHT22;46892;45.668;11.756;2022-09-03T21:32:10;21.30;73.90
55313;DHT22;46892;45.668;11.756;2022-09-03T21:34:28;21.40;74.20